createdAt,value
2018-06-21T00:00:31.557Z,99.90
2018-06-21T00:03:00.250Z,99.90
2018-06-21T00:05:28.802Z,99.90
2018-06-21T00:07:57.433Z,99.90
2018-06-21T00:10:25.934Z,99.90
2018-06-21T00:12:54.538Z,99.90
2018-06-21T00:15:23.060Z,99.90
2018-06-21T00:17:51.615Z,99.90
2018-06-21T00:22:48.531Z,99.90
2018-06-21T00:25:17.063Z,99.90
2018-06-21T00:27:45.556Z,99.90
2018-06-21T00:30:14.010Z,99.90
2018-06-21T00:35:11.190Z,99.90
2018-06-21T00:37:39.703Z,99.90
2018-06-21T00:40:08.338Z,99.90
2018-06-21T00:45:05.116Z,99.90
2018-06-21T00:47:33.642Z,99.90
2018-06-21T00:50:02.383Z,99.90
2018-06-21T00:52:30.922Z,99.90
2018-06-21T00:54:59.622Z,99.90
2018-06-21T00:57:28.091Z,99.90
2018-06-21T00:59:56.601Z,99.90
2018-06-21T01:04:53.298Z,99.90
2018-06-21T01:07:21.999Z,99.90
2018-06-21T01:09:50.665Z,99.90
2018-06-21T01:12:21.260Z,99.90
2018-06-21T01:17:18.981Z,99.90
2018-06-21T01:19:47.759Z,99.90
2018-06-21T01:22:16.395Z,99.90
2018-06-21T01:24:45.007Z,99.90
2018-06-21T01:27:13.489Z,99.90
2018-06-21T01:29:42.150Z,99.90
2018-06-21T01:32:10.554Z,99.90
2018-06-21T01:34:39.002Z,99.90
2018-06-21T01:39:35.810Z,99.90
2018-06-21T01:42:04.289Z,99.90
2018-06-21T01:44:32.793Z,99.90
2018-06-21T01:47:01.355Z,99.90
2018-06-21T01:49:29.999Z,99.90
2018-06-21T01:51:58.753Z,99.90
2018-06-21T01:54:27.425Z,99.90
2018-06-21T01:56:56.071Z,99.90
2018-06-21T01:59:24.580Z,99.90
2018-06-21T02:01:53.058Z,99.90
2018-06-21T02:04:21.524Z,99.90
2018-06-21T02:06:50.041Z,99.90
2018-06-21T02:09:18.635Z,99.90
2018-06-21T02:11:47.171Z,99.90
2018-06-21T02:14:15.726Z,99.90
2018-06-21T02:19:12.421Z,99.90
2018-06-21T02:21:40.967Z,99.90
2018-06-21T02:26:38.506Z,99.90
2018-06-21T02:29:07.210Z,99.90
2018-06-21T02:31:36.057Z,99.90
2018-06-21T02:34:04.650Z,99.90
2018-06-21T02:36:33.325Z,99.90
2018-06-21T02:39:01.832Z,99.90
2018-06-21T02:41:30.376Z,99.90
2018-06-21T02:43:58.941Z,99.90
2018-06-21T02:48:55.914Z,99.90
2018-06-21T02:51:24.413Z,99.90
2018-06-21T02:53:52.865Z,99.90
2018-06-21T02:56:21.406Z,99.90
2018-06-21T02:58:50.049Z,99.90
2018-06-21T03:01:18.607Z,99.90
2018-06-21T03:03:47.114Z,99.90
2018-06-21T03:06:15.616Z,99.90
2018-06-21T03:08:44.171Z,99.90
2018-06-21T03:11:12.716Z,99.90
2018-06-21T03:13:41.255Z,99.90
2018-06-21T03:16:09.765Z,99.90
2018-06-21T03:18:38.261Z,99.90
2018-06-21T03:21:06.777Z,99.90
2018-06-21T03:23:35.253Z,99.90
2018-06-21T03:26:04.399Z,99.90
2018-06-21T03:28:32.974Z,99.90
2018-06-21T03:31:01.503Z,99.90
2018-06-21T03:35:58.267Z,99.90
2018-06-21T03:40:54.933Z,99.90
2018-06-21T03:43:23.442Z,99.90
2018-06-21T03:45:51.968Z,99.90
2018-06-21T03:50:48.844Z,99.90
2018-06-21T03:53:17.302Z,99.90
2018-06-21T03:55:45.914Z,99.90
2018-06-21T03:58:14.606Z,99.90
2018-06-21T04:00:43.250Z,99.90
2018-06-21T04:03:12.076Z,99.90
2018-06-21T04:05:40.538Z,99.90
2018-06-21T04:08:09.048Z,99.90
2018-06-21T04:10:37.529Z,99.90
2018-06-21T04:13:06.069Z,99.90
2018-06-21T04:18:03.091Z,99.90
2018-06-21T04:20:31.699Z,99.90
2018-06-21T04:23:00.354Z,99.90
2018-06-21T04:25:28.839Z,99.90
2018-06-21T04:27:57.412Z,99.90
2018-06-21T04:30:26.286Z,99.90
2018-06-21T04:32:54.853Z,99.90
2018-06-21T04:37:51.602Z,99.90
2018-06-21T04:42:48.582Z,99.90
2018-06-21T04:45:17.146Z,99.90
2018-06-21T04:47:45.673Z,99.90
2018-06-21T04:50:14.358Z,99.90
2018-06-21T04:52:42.886Z,99.90
2018-06-21T04:55:11.337Z,99.90
2018-06-21T04:57:39.843Z,99.90
2018-06-21T05:00:08.449Z,99.90
2018-06-21T05:02:36.945Z,99.90
2018-06-21T05:05:06.287Z,99.90
2018-06-21T05:07:35.134Z,99.90
2018-06-21T05:10:03.735Z,99.90
2018-06-21T05:12:32.227Z,99.90
2018-06-21T05:15:00.796Z,99.90
2018-06-21T05:17:29.263Z,99.90
2018-06-21T05:19:57.738Z,99.90
2018-06-21T05:22:26.230Z,99.90
2018-06-21T05:24:54.713Z,99.90
2018-06-21T05:27:23.196Z,99.90
2018-06-21T05:29:51.661Z,99.90
2018-06-21T05:32:20.178Z,99.90
2018-06-21T05:34:48.680Z,99.90
2018-06-21T05:37:17.161Z,99.90
2018-06-21T05:39:45.633Z,99.90
2018-06-21T05:42:14.191Z,99.90
2018-06-21T05:44:42.666Z,99.90
2018-06-21T05:47:11.172Z,99.90
2018-06-21T05:49:39.702Z,99.90
2018-06-21T05:52:08.206Z,99.90
2018-06-21T05:54:36.699Z,99.90
2018-06-21T05:57:05.194Z,99.90
2018-06-21T05:59:33.682Z,99.90
2018-06-21T06:02:02.177Z,99.90
2018-06-21T06:04:30.594Z,99.90
2018-06-21T06:06:59.123Z,99.90
2018-06-21T06:09:28.762Z,99.90
2018-06-21T06:11:57.396Z,99.90
2018-06-21T06:14:25.926Z,99.90
2018-06-21T06:16:54.570Z,99.90
2018-06-21T06:19:22.997Z,99.90
2018-06-21T06:21:51.434Z,99.90
2018-06-21T06:24:19.892Z,99.90
2018-06-21T06:26:48.400Z,99.90
2018-06-21T06:29:17.014Z,99.90
2018-06-21T06:31:45.431Z,99.90
2018-06-21T06:34:13.890Z,99.90
2018-06-21T06:39:15.702Z,99.90
2018-06-21T06:41:44.385Z,99.90
2018-06-21T06:44:12.878Z,99.90
2018-06-21T06:46:41.344Z,99.90
2018-06-21T06:49:09.993Z,99.90
2018-06-21T06:51:39.199Z,99.90
2018-06-21T06:56:35.905Z,99.90
2018-06-21T06:59:04.361Z,99.90
2018-06-21T07:01:32.939Z,99.90
2018-06-21T07:04:01.415Z,99.90
2018-06-21T07:06:29.891Z,99.90
2018-06-21T07:11:27.816Z,99.90
2018-06-21T07:13:57.151Z,99.90
2018-06-21T07:16:26.099Z,99.90
2018-06-21T07:18:54.666Z,99.90
2018-06-21T07:21:23.103Z,99.90
2018-06-21T07:23:51.909Z,99.90
2018-06-21T07:28:49.073Z,99.90
2018-06-21T07:33:46.447Z,99.90
2018-06-21T07:36:15.146Z,99.90
2018-06-21T07:38:44.446Z,99.90
2018-06-21T07:41:12.871Z,99.90
2018-06-21T07:43:41.359Z,99.90
2018-06-21T07:46:09.841Z,99.90
2018-06-21T07:48:38.291Z,99.90
2018-06-21T07:51:07.182Z,99.90
2018-06-21T07:53:36.079Z,99.90
2018-06-21T07:56:04.964Z,99.90
2018-06-21T07:58:33.474Z,99.90
2018-06-21T08:01:01.926Z,99.90
2018-06-21T08:03:30.907Z,99.90
2018-06-21T08:05:59.554Z,99.90
2018-06-21T08:08:28.092Z,99.90
2018-06-21T08:10:56.607Z,99.90
2018-06-21T08:13:25.026Z,99.90
2018-06-21T08:15:53.521Z,99.90
2018-06-21T08:18:21.992Z,99.90
2018-06-21T08:20:50.498Z,99.90
2018-06-21T08:23:18.957Z,99.90
2018-06-21T08:28:15.558Z,99.90
2018-06-21T08:30:44.033Z,98.40
2018-06-21T08:33:12.470Z,98.50
2018-06-21T08:35:41.546Z,96.90
2018-06-21T08:40:38.152Z,94.50
2018-06-21T08:43:06.620Z,95.50
2018-06-21T08:45:35.095Z,93.50
2018-06-21T08:48:03.652Z,94.80
2018-06-21T08:50:32.138Z,95.80
2018-06-21T08:53:00.628Z,95.80
2018-06-21T08:55:29.065Z,94.50
2018-06-21T08:57:57.509Z,92.90
2018-06-21T09:00:25.964Z,92.60
2018-06-21T09:02:54.522Z,93.10
2018-06-21T09:05:23.090Z,93.20
2018-06-21T09:07:51.804Z,91.60
2018-06-21T09:10:20.247Z,90.70
2018-06-21T09:12:48.761Z,90.20
2018-06-21T09:17:45.390Z,91.40
2018-06-21T09:20:13.862Z,91.90
2018-06-21T09:22:42.348Z,92.20
2018-06-21T09:25:10.859Z,92.40
2018-06-21T09:27:39.271Z,92.20
2018-06-21T09:30:07.767Z,93.60
2018-06-21T09:32:36.200Z,94.30
2018-06-21T09:35:04.732Z,95.20
2018-06-21T09:37:38.505Z,94.00
2018-06-21T09:40:12.139Z,94.40
2018-06-21T09:42:45.971Z,94.00
2018-06-21T09:45:18.683Z,94.10
2018-06-21T09:47:52.447Z,94.90
2018-06-21T09:50:20.904Z,94.50
2018-06-21T09:52:49.370Z,95.50
2018-06-21T09:55:17.830Z,95.70
2018-06-21T09:57:46.283Z,94.10
2018-06-21T10:00:20.039Z,94.40
2018-06-21T10:02:48.501Z,94.50
2018-06-21T10:05:16.964Z,95.30
2018-06-21T10:07:45.400Z,94.80
2018-06-21T10:10:13.837Z,95.30
2018-06-21T10:12:45.212Z,95.50
2018-06-21T10:15:14.843Z,96.20
2018-06-21T10:17:43.302Z,97.20
2018-06-21T10:20:11.750Z,94.80
2018-06-21T10:22:40.189Z,94.50
2018-06-21T10:25:09.630Z,95.40
2018-06-21T10:27:38.138Z,95.30
2018-06-21T10:30:07.618Z,95.50
2018-06-21T10:32:36.092Z,95.70
2018-06-21T10:35:04.634Z,95.30
2018-06-21T10:37:33.018Z,95.00
2018-06-21T10:40:01.532Z,96.10
2018-06-21T10:42:30.154Z,94.30
2018-06-21T10:44:58.597Z,94.20
2018-06-21T10:47:26.992Z,92.40
2018-06-21T10:49:55.475Z,93.20
2018-06-21T10:52:24.010Z,93.10
2018-06-21T10:54:52.552Z,92.70
2018-06-21T10:57:21.051Z,92.80
2018-06-21T10:59:49.491Z,90.90
2018-06-21T11:02:17.913Z,90.00
2018-06-21T11:04:46.402Z,90.00
2018-06-21T11:07:14.828Z,91.00
2018-06-21T11:09:43.298Z,96.30
2018-06-21T11:14:39.983Z,99.90
2018-06-21T11:17:08.739Z,99.90
2018-06-21T11:22:06.263Z,99.90
2018-06-21T11:24:34.788Z,99.90
2018-06-21T11:29:31.416Z,99.90
2018-06-21T11:31:59.894Z,99.90
2018-06-21T11:34:29.081Z,99.90
2018-06-21T11:36:57.535Z,99.90
2018-06-21T11:39:26.023Z,99.90
2018-06-21T11:41:54.566Z,99.90
2018-06-21T11:46:52.201Z,99.20
2018-06-21T11:49:20.691Z,98.90
2018-06-21T11:51:49.562Z,98.90
2018-06-21T11:57:40.469Z,99.20
2018-06-21T12:00:09.002Z,99.20
2018-06-21T12:02:37.609Z,99.60
2018-06-21T12:05:06.366Z,99.90
2018-06-21T12:07:34.922Z,99.90
2018-06-21T12:12:31.658Z,99.90
2018-06-21T12:15:00.158Z,99.90
2018-06-21T12:17:28.580Z,99.90
2018-06-21T12:19:57.052Z,99.90
2018-06-21T12:22:25.651Z,99.90
2018-06-21T12:24:54.126Z,99.90
2018-06-21T12:27:22.621Z,99.90
2018-06-21T12:29:51.122Z,99.90
2018-06-21T12:32:19.623Z,99.90
2018-06-21T12:34:48.414Z,99.90
2018-06-21T12:39:45.157Z,99.90
2018-06-21T12:42:13.750Z,99.90
2018-06-21T12:44:42.534Z,99.90
2018-06-21T12:47:11.068Z,99.90
2018-06-21T12:49:39.584Z,99.90
2018-06-21T12:52:08.170Z,99.90
2018-06-21T12:54:36.683Z,99.40
2018-06-21T12:59:33.366Z,99.30
2018-06-21T13:02:01.885Z,98.70
2018-06-21T13:04:30.459Z,98.30
2018-06-21T13:06:59.016Z,98.90
2018-06-21T13:10:41.577Z,98.10
2018-06-21T13:13:19.545Z,98.60
2018-06-21T13:15:48.355Z,98.00
2018-06-21T13:18:16.858Z,97.80
2018-06-21T13:20:45.422Z,97.30
2018-06-21T13:23:14.067Z,96.90
2018-06-21T13:25:42.517Z,96.30
2018-06-21T13:28:11.062Z,96.30
2018-06-21T13:30:39.805Z,96.20
2018-06-21T13:33:08.303Z,94.70
2018-06-21T13:35:36.840Z,93.80
2018-06-21T13:38:05.447Z,93.80
2018-06-21T13:40:34.106Z,94.60
2018-06-21T13:43:02.643Z,92.40
2018-06-21T13:45:31.211Z,90.70
2018-06-21T13:47:59.915Z,91.00
2018-06-21T13:50:28.404Z,92.20
2018-06-21T13:52:56.932Z,90.70
2018-06-21T13:57:53.567Z,89.90
2018-06-21T14:00:21.985Z,88.40
2018-06-21T14:07:46.698Z,81.20
2018-06-21T14:10:15.267Z,84.50
2018-06-21T14:12:44.059Z,83.30
2018-06-21T14:15:12.545Z,79.50
2018-06-21T14:17:41.049Z,80.10
2018-06-21T14:20:09.592Z,79.90
2018-06-21T14:22:38.138Z,81.10
2018-06-21T14:25:06.590Z,80.50
2018-06-21T14:27:35.110Z,79.30
2018-06-21T14:30:03.628Z,77.60
2018-06-21T14:32:32.097Z,78.00
2018-06-21T14:35:00.778Z,76.60
2018-06-21T14:37:29.315Z,77.40
2018-06-21T14:39:57.838Z,76.80
2018-06-21T14:42:26.354Z,74.70
2018-06-21T14:44:54.867Z,76.00
2018-06-21T14:47:23.406Z,74.60
2018-06-21T14:49:51.868Z,75.00
2018-06-21T14:52:20.882Z,75.40
2018-06-21T14:57:17.614Z,70.80
2018-06-21T14:59:46.135Z,72.50
2018-06-21T15:02:14.695Z,69.20
2018-06-21T15:04:43.198Z,68.40
2018-06-21T15:07:11.688Z,65.70
2018-06-21T15:09:40.166Z,67.60
2018-06-21T15:12:08.585Z,64.30
2018-06-21T15:14:37.125Z,64.60
2018-06-21T15:17:05.690Z,66.10
2018-06-21T15:19:34.213Z,64.00
2018-06-21T15:22:02.614Z,59.70
2018-06-21T15:24:31.174Z,58.50
2018-06-21T15:26:59.682Z,59.80
2018-06-21T15:29:28.185Z,58.30
2018-06-21T15:31:57.101Z,58.60
2018-06-21T15:34:25.660Z,56.20
2018-06-21T15:36:54.178Z,54.80
2018-06-21T15:39:23.855Z,53.90
2018-06-21T15:41:52.531Z,53.60
2018-06-21T15:44:20.991Z,52.70
2018-06-21T15:46:49.531Z,52.00
2018-06-21T15:49:17.989Z,52.00
2018-06-21T15:51:46.478Z,54.60
2018-06-21T15:56:43.491Z,52.50
2018-06-21T15:59:12.033Z,52.70
2018-06-21T16:01:40.481Z,52.40
2018-06-21T16:04:09.057Z,51.70
2018-06-21T16:06:37.528Z,51.60
2018-06-21T16:09:09.247Z,50.60
2018-06-21T16:11:37.674Z,52.80
2018-06-21T16:14:06.202Z,51.90
2018-06-21T16:16:35.014Z,52.70
2018-06-21T16:19:03.649Z,53.20
2018-06-21T16:21:32.126Z,53.50
2018-06-21T16:24:00.618Z,54.80
2018-06-21T16:28:57.232Z,54.70
2018-06-21T16:31:26.945Z,53.70
2018-06-21T16:33:55.554Z,54.00
2018-06-21T16:36:24.042Z,54.30
2018-06-21T16:38:52.594Z,55.00
2018-06-21T16:41:21.106Z,53.40
2018-06-21T16:43:49.642Z,53.50
2018-06-21T16:46:18.133Z,53.30
2018-06-21T16:48:47.000Z,53.70
2018-06-21T16:51:15.567Z,54.00
2018-06-21T16:53:44.109Z,54.60
2018-06-21T16:56:12.633Z,53.30
2018-06-21T16:58:41.114Z,53.50
2018-06-21T17:01:09.675Z,53.40
2018-06-21T17:06:06.522Z,53.50
2018-06-21T17:08:35.080Z,53.90
2018-06-21T17:11:03.643Z,53.20
2018-06-21T17:13:32.270Z,53.00
2018-06-21T17:16:01.460Z,53.10
2018-06-21T17:18:29.950Z,52.50
2018-06-21T17:20:58.468Z,52.50
2018-06-21T17:23:26.953Z,52.30
2018-06-21T17:25:55.446Z,51.60
2018-06-21T17:28:23.954Z,52.10
2018-06-21T17:30:52.513Z,50.90
2018-06-21T17:33:21.130Z,51.00
2018-06-21T17:35:49.650Z,51.00
2018-06-21T17:38:18.176Z,51.60
2018-06-21T17:40:46.735Z,51.50
2018-06-21T17:43:15.295Z,51.90
2018-06-21T17:48:13.158Z,51.90
2018-06-21T17:50:42.552Z,52.00
2018-06-21T17:53:11.056Z,51.70
2018-06-21T17:58:07.817Z,52.20
2018-06-21T18:00:36.414Z,52.40
2018-06-21T18:03:04.913Z,52.60
2018-06-21T18:05:33.445Z,53.80
2018-06-21T18:08:01.922Z,53.10
2018-06-21T18:10:30.418Z,52.60
2018-06-21T18:15:27.288Z,53.10
2018-06-21T18:17:55.855Z,53.40
2018-06-21T18:22:52.567Z,53.90
2018-06-21T18:25:21.100Z,54.70
2018-06-21T18:30:18.514Z,55.20
2018-06-21T18:32:47.056Z,55.50
2018-06-21T18:35:15.577Z,55.20
2018-06-21T18:37:44.106Z,55.70
2018-06-21T18:40:12.666Z,55.10
2018-06-21T18:42:41.162Z,54.90
2018-06-21T18:45:09.947Z,55.30
2018-06-21T18:47:38.879Z,55.90
2018-06-21T18:50:07.468Z,55.60
2018-06-21T18:52:36.199Z,55.80
2018-06-21T18:55:04.850Z,56.20
2018-06-21T18:57:33.415Z,56.50
2018-06-21T19:00:02.168Z,56.30
2018-06-21T19:02:30.723Z,56.70
2018-06-21T19:04:59.357Z,57.10
2018-06-21T19:07:29.958Z,56.80
2018-06-21T19:10:03.750Z,56.80
2018-06-21T19:12:32.479Z,56.80
2018-06-21T19:15:01.008Z,57.10
2018-06-21T19:17:30.263Z,57.50
2018-06-21T19:19:58.791Z,57.30
2018-06-21T19:22:27.254Z,57.50
2018-06-21T19:24:55.795Z,57.80
2018-06-21T19:27:24.413Z,58.30
2018-06-21T19:29:52.900Z,58.50
2018-06-21T19:32:21.402Z,58.50
2018-06-21T19:34:49.902Z,58.80
2018-06-21T19:37:18.483Z,59.10
2018-06-21T19:39:47.058Z,59.30
2018-06-21T19:42:15.591Z,59.50
2018-06-21T19:44:44.076Z,59.50
2018-06-21T19:47:12.603Z,59.60
2018-06-21T19:49:41.050Z,59.70
2018-06-21T19:52:09.635Z,60.00
2018-06-21T19:54:38.248Z,60.40
2018-06-21T19:57:06.895Z,60.60
2018-06-21T19:59:35.458Z,60.70
2018-06-21T20:02:03.978Z,61.00
2018-06-21T20:04:32.791Z,60.80
2018-06-21T20:07:01.498Z,61.30
2018-06-21T20:09:32.808Z,61.50
2018-06-21T20:12:01.274Z,62.20
2018-06-21T20:14:29.773Z,61.90
2018-06-21T20:16:58.273Z,62.50
2018-06-21T20:19:26.738Z,63.20
2018-06-21T20:21:55.170Z,63.20
2018-06-21T20:24:23.609Z,63.40
2018-06-21T20:26:52.167Z,63.80
2018-06-21T20:29:21.289Z,64.00
2018-06-21T20:31:49.793Z,64.40
2018-06-21T20:34:18.311Z,64.60
2018-06-21T20:36:47.044Z,65.20
2018-06-21T20:39:15.556Z,65.50
2018-06-21T20:41:44.002Z,65.80
2018-06-21T20:44:12.588Z,66.20
2018-06-21T20:46:41.036Z,66.30
2018-06-21T20:49:09.538Z,66.40
2018-06-21T20:51:38.061Z,67.00
2018-06-21T20:54:06.573Z,66.90
2018-06-21T20:56:35.033Z,67.20
2018-06-21T20:59:03.558Z,67.70
2018-06-21T21:01:32.052Z,68.00
2018-06-21T21:04:00.636Z,68.00
2018-06-21T21:06:29.113Z,68.10
2018-06-21T21:08:57.761Z,67.90
2018-06-21T21:11:26.273Z,68.10
2018-06-21T21:13:54.821Z,68.20
2018-06-21T21:16:23.277Z,68.30
2018-06-21T21:18:51.781Z,68.40
2018-06-21T21:21:20.274Z,68.50
2018-06-21T21:23:49.221Z,69.30
2018-06-21T21:26:17.813Z,69.40
2018-06-21T21:28:46.337Z,69.60
2018-06-21T21:31:14.782Z,69.80
2018-06-21T21:33:43.242Z,70.00
2018-06-21T21:36:11.922Z,70.50
2018-06-21T21:38:40.381Z,70.90
2018-06-21T21:41:08.842Z,70.80
2018-06-21T21:43:37.310Z,70.60
2018-06-21T21:46:06.006Z,70.80
2018-06-21T21:48:34.487Z,73.30
2018-06-21T21:51:02.922Z,73.00
2018-06-21T21:55:59.587Z,74.60
2018-06-21T21:58:28.010Z,75.50
2018-06-21T22:00:57.499Z,72.70
2018-06-21T22:03:26.744Z,72.40
2018-06-21T22:05:55.244Z,72.60
2018-06-21T22:10:51.923Z,74.40
2018-06-21T22:13:20.441Z,73.90
2018-06-21T22:15:48.951Z,75.20
2018-06-21T22:18:17.457Z,75.60
2018-06-21T22:23:14.101Z,76.10
2018-06-21T22:25:42.727Z,76.40
2018-06-21T22:28:11.165Z,77.70
2018-06-21T22:35:35.976Z,78.30
2018-06-21T22:38:04.781Z,78.40
2018-06-21T22:43:01.374Z,80.10
2018-06-21T22:45:29.883Z,79.00
2018-06-21T22:47:58.381Z,79.10
2018-06-21T22:50:26.846Z,79.80
2018-06-21T22:52:55.313Z,80.20
2018-06-21T22:55:23.772Z,80.70
2018-06-21T22:57:52.225Z,81.10
2018-06-21T23:00:20.852Z,81.70
2018-06-21T23:02:49.306Z,81.90
2018-06-21T23:05:17.738Z,82.70
2018-06-21T23:07:46.231Z,83.00
2018-06-21T23:12:42.903Z,84.00
2018-06-21T23:15:11.321Z,83.90
2018-06-21T23:17:39.805Z,85.10
2018-06-21T23:20:08.236Z,85.20
2018-06-21T23:22:36.751Z,85.80
2018-06-21T23:25:05.327Z,86.40
2018-06-21T23:27:33.806Z,86.70
2018-06-21T23:30:02.332Z,88.50
2018-06-21T23:32:30.829Z,87.50
2018-06-21T23:34:59.322Z,87.90
2018-06-21T23:37:28.021Z,88.80
2018-06-21T23:39:56.489Z,89.50
2018-06-21T23:44:53.298Z,90.00
2018-06-21T23:47:21.696Z,90.10
2018-06-21T23:49:50.180Z,90.40
2018-06-21T23:52:18.692Z,90.50
2018-06-21T23:57:15.326Z,91.10
2018-06-21T23:59:43.819Z,91.40
